sensor_id;sensor_type;location;lat;lon;timestamp;pressure;altitude;pressure_sealevel;temperature;humidity
2841;BME280;53423;49.224;12.074;2023-03-19T00:00:29;97511.59;;;7.28;66.62
2841;BME280;53423;49.224;12.074;2023-03-19T00:02:57;97522.09;;;7.19;65.83
2841;BME280;53423;49.224;12.074;2023-03-19T00:05:25;97520.94;;;7.21;65.62
2841;BME280;53423;49.224;12.074;2023-03-19T00:07:53;97511.78;;;7.17;66.13
2841;BME280;53423;49.224;12.074;2023-03-19T00:10:23;97513.59;;;7.34;64.94
2841;BME280;53423;49.224;12.074;2023-03-19T00:12:50;97501.84;;;7.30;64.62
2841;BME280;53423;49.224;12.074;2023-03-19T00:15:18;97503.75;;;7.28;65.45
2841;BME280;53423;49.224;12.074;2023-03-19T00:17:46;97506.00;;;7.23;65.18
2841;BME280;53423;49.224;12.074;2023-03-19T00:20:14;97505.91;;;7.15;65.82
2841;BME280;53423;49.224;12.074;2023-03-19T00:22:43;97505.00;;;7.07;67.32
2841;BME280;53423;49.224;12.074;2023-03-19T00:25:11;97502.78;;;7.12;66.60
2841;BME280;53423;49.224;12.074;2023-03-19T00:27:41;97513.50;;;7.09;66.42
2841;BME280;53423;49.224;12.074;2023-03-19T00:30:10;97507.47;;;7.08;66.28
2841;BME280;53423;49.224;12.074;2023-03-19T00:32:39;97515.06;;;7.02;65.51
2841;BME280;53423;49.224;12.074;2023-03-19T00:35:08;97518.19;;;7.05;65.91
2841;BME280;53423;49.224;12.074;2023-03-19T00:37:36;97516.94;;;6.82;66.62
2841;BME280;53423;49.224;12.074;2023-03-19T00:40:05;97515.59;;;6.78;66.85
2841;BME280;53423;49.224;12.074;2023-03-19T00:42:33;97516.94;;;6.82;66.64
2841;BME280;53423;49.224;12.074;2023-03-19T00:45:04;97520.34;;;6.83;66.10
2841;BME280;53423;49.224;12.074;2023-03-19T00:47:32;97518.19;;;6.78;65.80
2841;BME280;53423;49.224;12.074;2023-03-19T00:50:00;97525.94;;;6.61;66.61
2841;BME280;53423;49.224;12.074;2023-03-19T00:52:28;97513.78;;;6.79;65.80
2841;BME280;53423;49.224;12.074;2023-03-19T00:54:56;97510.84;;;6.64;66.03
2841;BME280;53423;49.224;12.074;2023-03-19T00:57:24;97516.22;;;6.63;66.18
2841;BME280;53423;49.224;12.074;2023-03-19T00:59:52;97512.63;;;6.64;66.63
2841;BME280;53423;49.224;12.074;2023-03-19T01:02:21;97513.94;;;6.77;66.89
2841;BME280;53423;49.224;12.074;2023-03-19T01:04:49;97511.56;;;6.84;66.36
2841;BME280;53423;49.224;12.074;2023-03-19T01:07:17;97501.06;;;6.76;66.89
2841;BME280;53423;49.224;12.074;2023-03-19T01:09:45;97510.41;;;6.69;67.09
2841;BME280;53423;49.224;12.074;2023-03-19T01:12:13;97507.97;;;6.67;67.49
2841;BME280;53423;49.224;12.074;2023-03-19T01:14:41;97502.09;;;6.65;67.38
2841;BME280;53423;49.224;12.074;2023-03-19T01:17:09;97507.69;;;6.70;67.26
2841;BME280;53423;49.224;12.074;2023-03-19T01:19:39;97496.09;;;6.82;66.66
2841;BME280;53423;49.224;12.074;2023-03-19T01:22:07;97509.13;;;6.82;66.11
2841;BME280;53423;49.224;12.074;2023-03-19T01:24:35;97499.59;;;6.73;66.70
2841;BME280;53423;49.224;12.074;2023-03-19T01:27:03;97506.19;;;6.68;67.32
2841;BME280;53423;49.224;12.074;2023-03-19T01:29:31;97511.69;;;6.65;67.85
2841;BME280;53423;49.224;12.074;2023-03-19T01:31:59;97501.41;;;6.63;68.28
2841;BME280;53423;49.224;12.074;2023-03-19T01:34:27;97505.66;;;6.64;67.53
2841;BME280;53423;49.224;12.074;2023-03-19T01:36:56;97512.94;;;6.61;68.00
2841;BME280;53423;49.224;12.074;2023-03-19T01:39:24;97511.25;;;6.69;67.74
2841;BME280;53423;49.224;12.074;2023-03-19T01:41:53;97514.06;;;6.85;67.80
2841;BME280;53423;49.224;12.074;2023-03-19T01:44:23;97509.56;;;6.78;66.74
2841;BME280;53423;49.224;12.074;2023-03-19T01:46:51;97512.09;;;6.87;66.37
2841;BME280;53423;49.224;12.074;2023-03-19T01:49:20;97505.13;;;6.88;66.57
2841;BME280;53423;49.224;12.074;2023-03-19T01:51:50;97507.56;;;6.62;66.43
2841;BME280;53423;49.224;12.074;2023-03-19T01:54:23;97505.59;;;6.47;66.25
2841;BME280;53423;49.224;12.074;2023-03-19T01:56:55;97502.16;;;6.46;67.45
2841;BME280;53423;49.224;12.074;2023-03-19T01:59:27;97496.53;;;6.51;66.67
2841;BME280;53423;49.224;12.074;2023-03-19T02:01:59;97498.19;;;6.52;66.93
2841;BME280;53423;49.224;12.074;2023-03-19T02:04:30;97496.03;;;6.38;67.04
2841;BME280;53423;49.224;12.074;2023-03-19T02:06:59;97499.19;;;6.41;66.63
2841;BME280;53423;49.224;12.074;2023-03-19T02:09:30;97495.22;;;6.37;66.62
2841;BME280;53423;49.224;12.074;2023-03-19T02:12:00;97494.13;;;6.40;66.47
2841;BME280;53423;49.224;12.074;2023-03-19T02:14:28;97500.91;;;6.23;66.68
2841;BME280;53423;49.224;12.074;2023-03-19T02:16:56;97506.50;;;6.18;67.18
2841;BME280;53423;49.224;12.074;2023-03-19T02:19:29;97501.53;;;6.35;67.47
2841;BME280;53423;49.224;12.074;2023-03-19T02:21:59;97504.56;;;6.67;67.38
2841;BME280;53423;49.224;12.074;2023-03-19T02:24:32;97513.47;;;6.64;67.28
2841;BME280;53423;49.224;12.074;2023-03-19T02:27:06;97502.88;;;6.75;67.64
2841;BME280;53423;49.224;12.074;2023-03-19T02:29:34;97508.97;;;6.84;67.07
2841;BME280;53423;49.224;12.074;2023-03-19T02:32:03;97513.75;;;6.88;66.72
2841;BME280;53423;49.224;12.074;2023-03-19T02:34:36;97519.66;;;6.90;66.60
2841;BME280;53423;49.224;12.074;2023-03-19T02:37:08;97518.22;;;6.42;64.13
2841;BME280;53423;49.224;12.074;2023-03-19T02:39:43;97523.78;;;6.10;65.91
2841;BME280;53423;49.224;12.074;2023-03-19T02:42:17;97532.44;;;6.01;66.53
2841;BME280;53423;49.224;12.074;2023-03-19T02:44:46;97529.25;;;6.16;66.88
2841;BME280;53423;49.224;12.074;2023-03-19T02:47:14;97526.72;;;6.34;66.71
2841;BME280;53423;49.224;12.074;2023-03-19T02:49:42;97537.25;;;6.42;66.19
2841;BME280;53423;49.224;12.074;2023-03-19T02:52:10;97531.75;;;6.55;67.16
2841;BME280;53423;49.224;12.074;2023-03-19T02:54:38;97533.22;;;6.57;66.53
2841;BME280;53423;49.224;12.074;2023-03-19T02:57:07;97525.75;;;6.45;67.56
2841;BME280;53423;49.224;12.074;2023-03-19T02:59:36;97525.59;;;6.09;67.71
2841;BME280;53423;49.224;12.074;2023-03-19T03:02:04;97522.19;;;5.99;67.76
2841;BME280;53423;49.224;12.074;2023-03-19T03:04:33;97520.13;;;6.03;67.34
2841;BME280;53423;49.224;12.074;2023-03-19T03:07:02;97519.44;;;6.01;66.64
2841;BME280;53423;49.224;12.074;2023-03-19T03:09:30;97521.78;;;5.94;66.67
2841;BME280;53423;49.224;12.074;2023-03-19T03:11:58;97521.22;;;6.00;67.56
2841;BME280;53423;49.224;12.074;2023-03-19T03:14:26;97522.03;;;6.01;67.17
2841;BME280;53423;49.224;12.074;2023-03-19T03:16:56;97523.38;;;6.05;67.08
2841;BME280;53423;49.224;12.074;2023-03-19T03:19:24;97536.13;;;5.98;66.69
2841;BME280;53423;49.224;12.074;2023-03-19T03:21:52;97535.19;;;5.90;68.48
2841;BME280;53423;49.224;12.074;2023-03-19T03:24:20;97541.06;;;5.92;68.36
2841;BME280;53423;49.224;12.074;2023-03-19T03:26:48;97532.44;;;6.01;68.30
2841;BME280;53423;49.224;12.074;2023-03-19T03:29:16;97535.19;;;5.99;68.24
2841;BME280;53423;49.224;12.074;2023-03-19T03:31:44;97534.63;;;5.96;68.17
2841;BME280;53423;49.224;12.074;2023-03-19T03:34:13;97528.19;;;6.00;68.21
2841;BME280;53423;49.224;12.074;2023-03-19T03:36:41;97530.91;;;5.98;67.61
2841;BME280;53423;49.224;12.074;2023-03-19T03:39:10;97537.66;;;6.01;68.53
2841;BME280;53423;49.224;12.074;2023-03-19T03:41:37;97539.28;;;6.02;68.18
2841;BME280;53423;49.224;12.074;2023-03-19T03:44:05;97546.94;;;6.03;68.21
2841;BME280;53423;49.224;12.074;2023-03-19T03:46:33;97548.44;;;6.06;67.88
2841;BME280;53423;49.224;12.074;2023-03-19T03:49:02;97555.13;;;6.08;67.46
2841;BME280;53423;49.224;12.074;2023-03-19T03:51:31;97565.28;;;6.02;67.44
2841;BME280;53423;49.224;12.074;2023-03-19T03:53:59;97568.00;;;6.10;66.71
2841;BME280;53423;49.224;12.074;2023-03-19T03:56:27;97569.53;;;6.03;67.84
2841;BME280;53423;49.224;12.074;2023-03-19T03:58:55;97578.72;;;5.97;67.77
2841;BME280;53423;49.224;12.074;2023-03-19T04:01:23;97573.78;;;6.04;67.33
2841;BME280;53423;49.224;12.074;2023-03-19T04:03:51;97570.63;;;6.00;67.46
2841;BME280;53423;49.224;12.074;2023-03-19T04:06:21;97577.31;;;6.12;68.42
2841;BME280;53423;49.224;12.074;2023-03-19T04:08:51;97584.03;;;5.86;67.13
2841;BME280;53423;49.224;12.074;2023-03-19T04:11:19;97581.00;;;5.72;68.60
2841;BME280;53423;49.224;12.074;2023-03-19T04:13:47;97581.28;;;5.78;67.64
2841;BME280;53423;49.224;12.074;2023-03-19T04:16:16;97580.06;;;5.92;68.17
2841;BME280;53423;49.224;12.074;2023-03-19T04:18:43;97577.19;;;5.95;68.07
2841;BME280;53423;49.224;12.074;2023-03-19T04:21:11;97578.31;;;5.92;68.19
2841;BME280;53423;49.224;12.074;2023-03-19T04:23:39;97575.84;;;5.91;68.79
2841;BME280;53423;49.224;12.074;2023-03-19T04:26:08;97583.38;;;5.84;68.79
2841;BME280;53423;49.224;12.074;2023-03-19T04:28:37;97584.03;;;5.86;68.85
2841;BME280;53423;49.224;12.074;2023-03-19T04:31:06;97576.25;;;5.86;68.72
2841;BME280;53423;49.224;12.074;2023-03-19T04:33:35;97575.84;;;6.00;68.60
2841;BME280;53423;49.224;12.074;2023-03-19T04:36:03;97577.72;;;6.17;68.39
2841;BME280;53423;49.224;12.074;2023-03-19T04:38:31;97577.44;;;6.20;68.04
2841;BME280;53423;49.224;12.074;2023-03-19T04:40:59;97569.78;;;6.19;68.33
2841;BME280;53423;49.224;12.074;2023-03-19T04:43:29;97572.38;;;6.19;68.36
2841;BME280;53423;49.224;12.074;2023-03-19T04:45:57;97579.94;;;6.12;67.79
2841;BME280;53423;49.224;12.074;2023-03-19T04:48:25;97579.66;;;6.06;68.82
2841;BME280;53423;49.224;12.074;2023-03-19T04:50:53;97584.72;;;6.07;68.50
2841;BME280;53423;49.224;12.074;2023-03-19T04:53:22;97588.00;;;6.00;68.32
2841;BME280;53423;49.224;12.074;2023-03-19T04:55:51;97584.19;;;5.94;68.27
2841;BME280;53423;49.224;12.074;2023-03-19T04:58:19;97577.75;;;5.98;68.52
2841;BME280;53423;49.224;12.074;2023-03-19T05:00:49;97585.00;;;5.85;68.67
2841;BME280;53423;49.224;12.074;2023-03-19T05:03:17;97582.56;;;5.84;68.96
2841;BME280;53423;49.224;12.074;2023-03-19T05:05:44;97582.16;;;5.98;68.66
2841;BME280;53423;49.224;12.074;2023-03-19T05:08:12;97575.41;;;6.05;68.45
2841;BME280;53423;49.224;12.074;2023-03-19T05:10:40;97586.22;;;6.00;68.23
2841;BME280;53423;49.224;12.074;2023-03-19T05:13:08;97581.41;;;6.15;69.11
2841;BME280;53423;49.224;12.074;2023-03-19T05:15:36;97580.72;;;6.22;67.84
2841;BME280;53423;49.224;12.074;2023-03-19T05:18:06;97587.97;;;6.38;68.62
2841;BME280;53423;49.224;12.074;2023-03-19T05:20:34;97590.78;;;6.54;69.01
2841;BME280;53423;49.224;12.074;2023-03-19T05:23:02;97588.34;;;6.53;68.73
2841;BME280;53423;49.224;12.074;2023-03-19T05:25:32;97595.56;;;6.68;68.52
2841;BME280;53423;49.224;12.074;2023-03-19T05:28:01;97598.31;;;6.67;68.55
2841;BME280;53423;49.224;12.074;2023-03-19T05:30:29;97606.13;;;6.67;68.28
2841;BME280;53423;49.224;12.074;2023-03-19T05:32:59;97604.16;;;6.69;69.03
2841;BME280;53423;49.224;12.074;2023-03-19T05:35:29;97599.88;;;6.77;67.80
2841;BME280;53423;49.224;12.074;2023-03-19T05:37:58;97601.41;;;6.80;67.80
2841;BME280;53423;49.224;12.074;2023-03-19T05:40:25;97612.56;;;6.63;68.10
2841;BME280;53423;49.224;12.074;2023-03-19T05:42:54;97613.63;;;6.70;67.19
2841;BME280;53423;49.224;12.074;2023-03-19T05:45:22;97618.59;;;6.63;68.30
2841;BME280;53423;49.224;12.074;2023-03-19T05:47:49;97625.19;;;6.58;68.03
2841;BME280;53423;49.224;12.074;2023-03-19T05:50:18;97636.16;;;6.52;68.10
2841;BME280;53423;49.224;12.074;2023-03-19T05:52:47;97649.97;;;6.52;68.76
2841;BME280;53423;49.224;12.074;2023-03-19T05:55:15;97650.94;;;6.61;68.53
2841;BME280;53423;49.224;12.074;2023-03-19T05:57:43;97646.94;;;6.66;68.53
2841;BME280;53423;49.224;12.074;2023-03-19T06:00:12;97640.91;;;6.75;68.00
2841;BME280;53423;49.224;12.074;2023-03-19T06:02:42;97645.69;;;6.80;68.29
2841;BME280;53423;49.224;12.074;2023-03-19T06:05:10;97639.34;;;6.82;68.51
2841;BME280;53423;49.224;12.074;2023-03-19T06:07:38;97639.09;;;6.85;68.45
2841;BME280;53423;49.224;12.074;2023-03-19T06:10:08;97632.22;;;6.84;68.17
2841;BME280;53423;49.224;12.074;2023-03-19T06:12:37;97639.19;;;6.93;68.15
2841;BME280;53423;49.224;12.074;2023-03-19T06:15:05;97634.81;;;6.84;69.31
2841;BME280;53423;49.224;12.074;2023-03-19T06:17:34;97627.72;;;7.13;68.41
2841;BME280;53423;49.224;12.074;2023-03-19T06:20:03;97639.63;;;7.16;67.79
2841;BME280;53423;49.224;12.074;2023-03-19T06:22:31;97645.28;;;7.11;67.75
2841;BME280;53423;49.224;12.074;2023-03-19T06:24:59;97649.81;;;7.09;68.49
2841;BME280;53423;49.224;12.074;2023-03-19T06:27:28;97651.50;;;7.01;67.84
2841;BME280;53423;49.224;12.074;2023-03-19T06:29:56;97652.03;;;7.04;69.09
2841;BME280;53423;49.224;12.074;2023-03-19T06:32:24;97652.28;;;7.11;68.62
2841;BME280;53423;49.224;12.074;2023-03-19T06:34:52;97666.09;;;7.21;67.93
2841;BME280;53423;49.224;12.074;2023-03-19T06:37:20;97671.81;;;7.34;67.39
2841;BME280;53423;49.224;12.074;2023-03-19T06:39:48;97672.06;;;7.40;66.88
2841;BME280;53423;49.224;12.074;2023-03-19T06:42:16;97671.81;;;7.34;68.00
2841;BME280;53423;49.224;12.074;2023-03-19T06:44:45;97676.69;;;7.46;66.89
2841;BME280;53423;49.224;12.074;2023-03-19T06:47:13;97670.13;;;7.42;67.32
2841;BME280;53423;49.224;12.074;2023-03-19T06:49:41;97672.06;;;7.40;67.46
2841;BME280;53423;49.224;12.074;2023-03-19T06:52:09;97672.84;;;7.41;68.13
2841;BME280;53423;49.224;12.074;2023-03-19T06:54:37;97674.56;;;7.32;68.56
2841;BME280;53423;49.224;12.074;2023-03-19T06:57:05;97682.03;;;7.45;68.21
2841;BME280;53423;49.224;12.074;2023-03-19T06:59:33;97680.97;;;7.38;68.49
2841;BME280;53423;49.224;12.074;2023-03-19T07:02:03;97682.47;;;7.40;68.46
2841;BME280;53423;49.224;12.074;2023-03-19T07:04:31;97694.53;;;7.41;68.86
2841;BME280;53423;49.224;12.074;2023-03-19T07:06:59;97682.56;;;7.48;68.33
2841;BME280;53423;49.224;12.074;2023-03-19T07:09:28;97696.28;;;7.50;68.35
2841;BME280;53423;49.224;12.074;2023-03-19T07:11:56;97692.56;;;7.53;68.02
2841;BME280;53423;49.224;12.074;2023-03-19T07:14:24;97693.38;;;7.53;68.54
2841;BME280;53423;49.224;12.074;2023-03-19T07:16:52;97709.91;;;7.72;68.65
2841;BME280;53423;49.224;12.074;2023-03-19T07:19:21;97707.91;;;7.83;68.30
2841;BME280;53423;49.224;12.074;2023-03-19T07:21:49;97718.69;;;7.98;68.78
2841;BME280;53423;49.224;12.074;2023-03-19T07:24:17;97716.72;;;8.00;68.22
2841;BME280;53423;49.224;12.074;2023-03-19T07:26:45;97721.81;;;8.01;68.28
2841;BME280;53423;49.224;12.074;2023-03-19T07:29:13;97729.41;;;8.12;67.97
2841;BME280;53423;49.224;12.074;2023-03-19T07:31:41;97718.44;;;8.09;67.16
2841;BME280;53423;49.224;12.074;2023-03-19T07:34:09;97733.91;;;8.20;67.29
2841;BME280;53423;49.224;12.074;2023-03-19T07:36:38;97740.91;;;8.46;67.57
2841;BME280;53423;49.224;12.074;2023-03-19T07:39:06;97730.50;;;8.54;67.25
2841;BME280;53423;49.224;12.074;2023-03-19T07:41:34;97735.16;;;8.86;67.17
2841;BME280;53423;49.224;12.074;2023-03-19T07:44:02;97734.34;;;9.11;66.97
2841;BME280;53423;49.224;12.074;2023-03-19T07:46:30;97728.91;;;9.30;66.22
2841;BME280;53423;49.224;12.074;2023-03-19T07:48:58;97726.81;;;9.67;65.79
2841;BME280;53423;49.224;12.074;2023-03-19T07:51:25;97725.94;;;10.00;65.25
2841;BME280;53423;49.224;12.074;2023-03-19T07:53:55;97725.38;;;10.47;63.99
2841;BME280;53423;49.224;12.074;2023-03-19T07:56:23;97726.38;;;10.62;62.63
2841;BME280;53423;49.224;12.074;2023-03-19T07:58:51;97721.63;;;10.97;62.20
2841;BME280;53423;49.224;12.074;2023-03-19T08:01:19;97718.22;;;10.73;62.93
2841;BME280;53423;49.224;12.074;2023-03-19T08:03:47;97727.34;;;11.01;62.43
2841;BME280;53423;49.224;12.074;2023-03-19T08:06:15;97725.03;;;11.14;61.46
2841;BME280;53423;49.224;12.074;2023-03-19T08:08:43;97731.03;;;11.47;60.47
2841;BME280;53423;49.224;12.074;2023-03-19T08:11:12;97726.38;;;11.73;59.18
2841;BME280;53423;49.224;12.074;2023-03-19T08:13:40;97727.41;;;12.02;59.64
2841;BME280;53423;49.224;12.074;2023-03-19T08:16:09;97728.97;;;12.42;58.50
2841;BME280;53423;49.224;12.074;2023-03-19T08:18:37;97722.06;;;12.64;56.79
2841;BME280;53423;49.224;12.074;2023-03-19T08:21:05;97717.28;;;12.67;56.43
2841;BME280;53423;49.224;12.074;2023-03-19T08:23:33;97723.34;;;12.68;57.67
2841;BME280;53423;49.224;12.074;2023-03-19T08:26:01;97721.94;;;12.80;56.17
2841;BME280;53423;49.224;12.074;2023-03-19T08:28:31;97722.66;;;12.51;58.00
2841;BME280;53423;49.224;12.074;2023-03-19T08:31:05;97729.66;;;12.59;55.72
2841;BME280;53423;49.224;12.074;2023-03-19T08:33:34;97717.84;;;12.77;56.20
2841;BME280;53423;49.224;12.074;2023-03-19T08:36:06;97725.28;;;12.74;56.78
2841;BME280;53423;49.224;12.074;2023-03-19T08:38:34;97721.38;;;12.47;56.50
2841;BME280;53423;49.224;12.074;2023-03-19T08:41:04;97732.59;;;12.41;56.12
2841;BME280;53423;49.224;12.074;2023-03-19T08:43:34;97742.09;;;12.19;56.65
2841;BME280;53423;49.224;12.074;2023-03-19T08:46:04;97748.81;;;12.22;56.99
2841;BME280;53423;49.224;12.074;2023-03-19T08:48:32;97743.88;;;11.88;59.08
2841;BME280;53423;49.224;12.074;2023-03-19T08:51:01;97748.41;;;12.02;59.63
2841;BME280;53423;49.224;12.074;2023-03-19T08:53:30;97741.97;;;12.13;58.82
2841;BME280;53423;49.224;12.074;2023-03-19T08:56:00;97737.03;;;12.10;59.59
2841;BME280;53423;49.224;12.074;2023-03-19T08:58:29;97745.44;;;11.59;59.94
2841;BME280;53423;49.224;12.074;2023-03-19T09:01:02;97745.19;;;11.92;60.42
2841;BME280;53423;49.224;12.074;2023-03-19T09:03:30;97741.44;;;12.17;59.95
2841;BME280;53423;49.224;12.074;2023-03-19T09:05:59;97736.66;;;12.21;59.70
2841;BME280;53423;49.224;12.074;2023-03-19T09:08:28;97738.13;;;12.23;59.66
2841;BME280;53423;49.224;12.074;2023-03-19T09:10:57;97747.66;;;12.24;58.61
2841;BME280;53423;49.224;12.074;2023-03-19T09:13:25;97745.34;;;12.21;59.59
2841;BME280;53423;49.224;12.074;2023-03-19T09:15:54;97741.81;;;12.06;60.48
2841;BME280;53423;49.224;12.074;2023-03-19T09:18:23;97740.66;;;12.39;60.00
2841;BME280;53423;49.224;12.074;2023-03-19T09:20:51;97741.47;;;12.63;59.05
2841;BME280;53423;49.224;12.074;2023-03-19T09:23:20;97740.28;;;12.88;57.26
2841;BME280;53423;49.224;12.074;2023-03-19T09:25:48;97754.19;;;12.96;58.19
2841;BME280;53423;49.224;12.074;2023-03-19T09:28:17;97741.50;;;13.00;57.51
2841;BME280;53423;49.224;12.074;2023-03-19T09:30:45;97745.13;;;13.21;57.63
2841;BME280;53423;49.224;12.074;2023-03-19T09:33:14;97748.63;;;13.14;58.10
2841;BME280;53423;49.224;12.074;2023-03-19T09:35:48;97749.19;;;12.64;58.63
2841;BME280;53423;49.224;12.074;2023-03-19T09:38:17;97753.75;;;12.47;60.08
2841;BME280;53423;49.224;12.074;2023-03-19T09:40:46;97755.25;;;12.19;62.18
2841;BME280;53423;49.224;12.074;2023-03-19T09:46:18;97763.53;;;12.62;60.72
2841;BME280;53423;49.224;12.074;2023-03-19T09:48:52;97764.09;;;13.17;59.95
2841;BME280;53423;49.224;12.074;2023-03-19T09:51:27;97764.34;;;13.59;58.10
2841;BME280;53423;49.224;12.074;2023-03-19T09:54:00;97761.94;;;13.49;57.35
2841;BME280;53423;49.224;12.074;2023-03-19T09:56:31;97765.34;;;13.73;58.25
2841;BME280;53423;49.224;12.074;2023-03-19T09:58:59;97770.69;;;13.94;56.96
2841;BME280;53423;49.224;12.074;2023-03-19T10:01:32;97771.63;;;14.22;56.63
2841;BME280;53423;49.224;12.074;2023-03-19T10:04:26;97766.84;;;14.25;56.39
2841;BME280;53423;49.224;12.074;2023-03-19T10:07:05;97755.44;;;14.39;56.15
2841;BME280;53423;49.224;12.074;2023-03-19T10:09:44;97752.34;;;14.71;55.02
2841;BME280;53423;49.224;12.074;2023-03-19T10:12:26;97757.72;;;14.84;54.38
2841;BME280;53423;49.224;12.074;2023-03-19T10:15:15;97763.41;;;14.81;55.05
2841;BME280;53423;49.224;12.074;2023-03-19T10:17:53;97767.72;;;14.89;54.89
2841;BME280;53423;49.224;12.074;2023-03-19T10:20:29;97762.50;;;14.95;54.45
2841;BME280;53423;49.224;12.074;2023-03-19T10:23:02;97767.97;;;15.15;54.21
2841;BME280;53423;49.224;12.074;2023-03-19T10:25:39;97768.00;;;15.22;54.40
2841;BME280;53423;49.224;12.074;2023-03-19T10:28:13;97781.13;;;15.09;54.19
2841;BME280;53423;49.224;12.074;2023-03-19T10:30:46;97783.91;;;15.28;54.92
2841;BME280;53423;49.224;12.074;2023-03-19T10:33:21;97781.25;;;15.49;55.03
2841;BME280;53423;49.224;12.074;2023-03-19T10:35:56;97779.50;;;15.63;54.24
2841;BME280;53423;49.224;12.074;2023-03-19T10:38:26;97782.97;;;15.63;53.46
2841;BME280;53423;49.224;12.074;2023-03-19T10:41:04;97793.22;;;15.79;51.89
2841;BME280;53423;49.224;12.074;2023-03-19T10:43:38;97782.41;;;15.74;52.15
2841;BME280;53423;49.224;12.074;2023-03-19T10:46:11;97786.47;;;15.43;52.66
2841;BME280;53423;49.224;12.074;2023-03-19T10:48:42;97784.78;;;15.14;52.90
2841;BME280;53423;49.224;12.074;2023-03-19T10:51:13;97782.41;;;15.40;52.46
2841;BME280;53423;49.224;12.074;2023-03-19T10:53:44;97782.03;;;15.43;52.81
2841;BME280;53423;49.224;12.074;2023-03-19T10:56:17;97779.31;;;15.64;51.39
2841;BME280;53423;49.224;12.074;2023-03-19T10:58:59;97780.28;;;15.36;52.19
2841;BME280;53423;49.224;12.074;2023-03-19T11:01:31;97784.59;;;15.16;52.80
2841;BME280;53423;49.224;12.074;2023-03-19T11:04:01;97781.47;;;15.06;53.26
2841;BME280;53423;49.224;12.074;2023-03-19T11:06:31;97778.72;;;14.92;53.45
2841;BME280;53423;49.224;12.074;2023-03-19T11:09:13;97778.56;;;15.01;52.98
2841;BME280;53423;49.224;12.074;2023-03-19T11:11:43;97771.47;;;15.01;53.94
2841;BME280;53423;49.224;12.074;2023-03-19T11:14:16;97776.25;;;14.91;54.84
2841;BME280;53423;49.224;12.074;2023-03-19T11:16:47;97766.09;;;15.37;53.58
2841;BME280;53423;49.224;12.074;2023-03-19T11:19:19;97770.88;;;15.48;53.33
2841;BME280;53423;49.224;12.074;2023-03-19T11:22:00;97768.03;;;15.49;53.38
2841;BME280;53423;49.224;12.074;2023-03-19T11:24:36;97767.06;;;15.57;53.41
2841;BME280;53423;49.224;12.074;2023-03-19T11:27:05;97773.13;;;15.85;52.80
2841;BME280;53423;49.224;12.074;2023-03-19T11:29:34;97766.56;;;15.40;54.02
2841;BME280;53423;49.224;12.074;2023-03-19T11:32:14;97762.69;;;15.15;55.20
2841;BME280;53423;49.224;12.074;2023-03-19T11:34:51;97765.41;;;15.28;54.64
2841;BME280;53423;49.224;12.074;2023-03-19T11:37:26;97752.91;;;15.71;53.33
2841;BME280;53423;49.224;12.074;2023-03-19T11:40:05;97752.69;;;16.06;53.06
2841;BME280;53423;49.224;12.074;2023-03-19T11:42:44;97750.22;;;15.98;53.26
2841;BME280;53423;49.224;12.074;2023-03-19T11:45:24;97750.59;;;16.43;52.66
2841;BME280;53423;49.224;12.074;2023-03-19T11:48:04;97753.19;;;16.90;50.74
2841;BME280;53423;49.224;12.074;2023-03-19T11:50:44;97743.00;;;17.46;50.30
2841;BME280;53423;49.224;12.074;2023-03-19T11:53:22;97747.69;;;17.50;48.83
2841;BME280;53423;49.224;12.074;2023-03-19T11:56:00;97739.94;;;17.09;50.27
2841;BME280;53423;49.224;12.074;2023-03-19T11:58:59;97740.72;;;17.69;48.47
2841;BME280;53423;49.224;12.074;2023-03-19T12:01:57;97740.13;;;17.21;48.93
2841;BME280;53423;49.224;12.074;2023-03-19T12:04:36;97733.38;;;17.64;48.23
2841;BME280;53423;49.224;12.074;2023-03-19T12:07:19;97728.84;;;17.91;48.17
2841;BME280;53423;49.224;12.074;2023-03-19T12:09:56;97728.91;;;17.45;48.24
2841;BME280;53423;49.224;12.074;2023-03-19T12:12:33;97728.72;;;17.20;49.31
2841;BME280;53423;49.224;12.074;2023-03-19T12:15:13;97727.72;;;17.08;49.95
2841;BME280;53423;49.224;12.074;2023-03-19T12:17:55;97730.38;;;17.15;49.18
2841;BME280;53423;49.224;12.074;2023-03-19T12:20:31;97731.56;;;17.25;48.87
2841;BME280;53423;49.224;12.074;2023-03-19T12:23:14;97739.72;;;17.30;48.77
2841;BME280;53423;49.224;12.074;2023-03-19T12:26:01;97730.56;;;16.94;49.15
2841;BME280;53423;49.224;12.074;2023-03-19T12:28:34;97732.38;;;16.80;49.43
2841;BME280;53423;49.224;12.074;2023-03-19T12:34:14;97724.13;;;16.30;50.46
2841;BME280;53423;49.224;12.074;2023-03-19T12:36:49;97729.78;;;16.33;49.93
2841;BME280;53423;49.224;12.074;2023-03-19T12:39:24;97724.91;;;16.30;50.58
2841;BME280;53423;49.224;12.074;2023-03-19T12:41:55;97716.69;;;16.05;52.50
2841;BME280;53423;49.224;12.074;2023-03-19T12:44:28;97710.59;;;16.11;51.33
2841;BME280;53423;49.224;12.074;2023-03-19T12:47:03;97712.69;;;16.23;51.54
2841;BME280;53423;49.224;12.074;2023-03-19T12:49:35;97710.81;;;16.83;49.82
2841;BME280;53423;49.224;12.074;2023-03-19T12:52:12;97710.19;;;17.27;48.63
2841;BME280;53423;49.224;12.074;2023-03-19T12:54:47;97710.56;;;17.57;48.30
2841;BME280;53423;49.224;12.074;2023-03-19T12:57:21;97703.75;;;17.87;47.09
2841;BME280;53423;49.224;12.074;2023-03-19T12:59:59;97696.09;;;17.46;49.52
2841;BME280;53423;49.224;12.074;2023-03-19T13:02:32;97697.84;;;17.85;49.59
2841;BME280;53423;49.224;12.074;2023-03-19T13:05:06;97696.78;;;17.99;48.41
2841;BME280;53423;49.224;12.074;2023-03-19T13:07:44;97691.16;;;17.63;49.06
2841;BME280;53423;49.224;12.074;2023-03-19T13:10:18;97694.28;;;17.47;48.81
2841;BME280;53423;49.224;12.074;2023-03-19T13:12:47;97693.88;;;17.23;49.95
2841;BME280;53423;49.224;12.074;2023-03-19T13:15:23;97693.06;;;17.29;49.83
2841;BME280;53423;49.224;12.074;2023-03-19T13:17:59;97699.97;;;17.24;49.91
2841;BME280;53423;49.224;12.074;2023-03-19T13:20:38;97703.41;;;17.70;49.65
2841;BME280;53423;49.224;12.074;2023-03-19T13:23:19;97699.16;;;17.56;48.94
2841;BME280;53423;49.224;12.074;2023-03-19T13:25:49;97691.81;;;17.38;50.46
2841;BME280;53423;49.224;12.074;2023-03-19T13:28:22;97693.00;;;17.69;48.66
2841;BME280;53423;49.224;12.074;2023-03-19T13:31:02;97686.03;;;17.74;47.69